Time;durP1;ratioP1;P1;durP2;ratioP2;P2;SDS_P1;SDS_P2;PMS_P1;PMS_P2;Temp;Humidity;BMP_temperature;BMP_pressure;BME280_temperature;BME280_humidity;BME280_pressure;Samples;Min_cycle;Max_cycle;Signal;HPM_P1;HPM_P2
2021/04/21 00:01:30;;;;;;;8.43;7.63;;;17.00;43.60;;;;;;5046531;28;20450;-46
2021/04/21 00:03:58;;;;;;;10.00;9.10;;;17.00;43.60;;;;;;5045494;28;20466;-44
2021/04/21 00:06:24;;;;;;;8.67;7.77;;;16.90;43.40;;;;;;5045557;28;20968;-45
2021/04/21 00:08:50;;;;;;;9.70;8.80;;;16.90;43.80;;;;;;5046522;28;20484;-45
2021/04/21 00:11:17;;;;;;;13.70;10.03;;;16.90;43.80;;;;;;5045665;28;20453;-43
2021/04/21 00:13:44;;;;;;;11.37;9.83;;;16.90;43.70;;;;;;5042350;28;20484;-44
2021/04/21 00:16:13;;;;;;;10.20;9.20;;;16.90;43.40;;;;;;5047027;28;20443;-44
2021/04/21 00:18:41;;;;;;;10.53;8.97;;;16.90;43.40;;;;;;5042509;28;20450;-44
2021/04/21 00:21:07;;;;;;;11.17;9.97;;;16.90;43.90;;;;;;5043594;28;20466;-45
2021/04/21 00:23:34;;;;;;;12.43;9.60;;;16.90;43.80;;;;;;5043540;28;20977;-43
2021/04/21 00:26:01;;;;;;;10.47;9.37;;;16.90;43.50;;;;;;5044487;28;20540;-44
2021/04/21 00:28:31;;;;;;;12.20;10.13;;;16.90;43.60;;;;;;5043186;28;20443;-43
2021/04/21 00:31:00;;;;;;;12.60;9.07;;;16.90;43.80;;;;;;5043726;28;20496;-44
2021/04/21 00:33:27;;;;;;;11.60;10.40;;;16.80;44.10;;;;;;5043828;28;20447;-44
2021/04/21 00:35:54;;;;;;;12.13;10.93;;;16.70;44.20;;;;;;5043707;28;20466;-45
2021/04/21 00:38:21;;;;;;;10.73;9.73;;;16.80;44.40;;;;;;5044270;28;20540;-46
2021/04/21 00:41:07;;;;;;;11.80;9.60;;;16.70;43.60;;;;;;5045339;28;22191;-44
2021/04/21 00:43:48;;;;;;;11.17;9.47;;;16.70;44.00;;;;;;5051371;28;21180;-47
2021/04/21 00:46:36;;;;;;;11.67;9.60;;;16.60;44.50;;;;;;5042856;28;20817;-45
2021/04/21 00:49:27;;;;;;;10.90;9.70;;;16.70;44.10;;;;;;5045315;28;20918;-43
2021/04/21 00:51:58;;;;;;;9.27;8.40;;;16.50;43.80;;;;;;5045446;28;20450;-48
2021/04/21 00:54:39;;;;;;;9.83;8.80;;;16.40;44.50;;;;;;5047840;28;20451;-48
2021/04/21 00:57:13;;;;;;;11.57;9.40;;;16.50;44.30;;;;;;5045662;28;20909;-44
2021/04/21 01:00:14;;;;;;;10.73;9.60;;;16.40;44.50;;;;;;5044206;28;20485;-44
2021/04/21 01:02:48;;;;;;;11.13;9.90;;;16.40;44.40;;;;;;5043452;28;20462;-45
2021/04/21 01:05:21;;;;;;;10.80;8.77;;;16.40;44.80;;;;;;5045813;28;20439;-45
2021/04/21 01:07:50;;;;;;;10.27;9.23;;;16.40;44.70;;;;;;5044414;28;20981;-45
2021/04/21 01:10:17;;;;;;;13.83;10.60;;;16.30;44.70;;;;;;5042436;28;20442;-43
2021/04/21 01:12:48;;;;;;;14.00;10.57;;;16.40;44.10;;;;;;5040241;28;20768;-44
2021/04/21 01:15:15;;;;;;;11.60;10.20;;;16.40;44.40;;;;;;5041599;28;20465;-43
2021/04/21 01:17:43;;;;;;;10.50;9.03;;;16.40;44.20;;;;;;5045192;28;20536;-44
2021/04/21 01:20:12;;;;;;;10.50;9.50;;;16.30;44.50;;;;;;5046181;28;21125;-43
2021/04/21 01:22:47;;;;;;;9.77;8.77;;;16.30;44.70;;;;;;5043241;28;20446;-43
2021/04/21 01:25:23;;;;;;;12.33;10.17;;;16.30;44.70;;;;;;5040312;28;20447;-43
2021/04/21 01:27:52;;;;;;;11.37;10.17;;;16.30;44.40;;;;;;5042671;28;20512;-45
2021/04/21 01:30:23;;;;;;;15.27;10.77;;;16.30;44.10;;;;;;5042856;28;20447;-45
2021/04/21 01:32:52;;;;;;;11.60;10.40;;;16.30;43.90;;;;;;5041510;28;20797;-44
2021/04/21 01:35:21;;;;;;;11.00;9.90;;;16.30;43.90;;;;;;5039967;28;20466;-44
2021/04/21 01:37:57;;;;;;;12.10;10.00;;;16.30;44.00;;;;;;5039970;28;20439;-47
2021/04/21 01:40:28;;;;;;;11.97;8.97;;;16.10;45.00;;;;;;5040050;28;20492;-45
2021/04/21 01:43:00;;;;;;;11.20;10.07;;;16.00;45.20;;;;;;5041410;28;20450;-45
2021/04/21 01:45:30;;;;;;;12.43;10.70;;;16.00;45.10;;;;;;5040302;28;20449;-43
2021/04/21 01:48:11;;;;;;;11.23;10.03;;;15.50;44.90;;;;;;5042820;28;22332;-44
2021/04/21 01:50:36;;;;;;;10.10;8.80;;;15.50;45.90;;;;;;5042184;28;20431;-44
2021/04/21 01:53:34;;;;;;;10.43;8.53;;;15.50;45.80;;;;;;5044252;28;20843;-44
2021/04/21 01:56:25;;;;;;;14.30;10.27;;;15.40;46.00;;;;;;5041235;28;20223;-46
2021/04/21 01:59:33;;;;;;;11.50;10.30;;;15.50;45.90;;;;;;5040525;28;20454;-43
2021/04/21 02:02:25;;;;;;;10.97;9.80;;;15.70;45.70;;;;;;5040198;28;20474;-43
2021/04/21 02:05:15;;;;;;;10.37;9.13;;;15.80;44.90;;;;;;5032642;28;20451;-45
2021/04/21 02:08:12;;;;;;;10.80;9.70;;;16.00;45.10;;;;;;5041738;28;20543;-43
2021/04/21 02:10:56;;;;;;;9.73;8.73;;;16.10;44.60;;;;;;5041846;28;20529;-43
2021/04/21 02:13:38;;;;;;;11.40;9.93;;;16.20;44.50;;;;;;5041026;28;20449;-44
2021/04/21 02:16:34;;;;;;;13.93;10.30;;;16.10;44.50;;;;;;5041796;28;20458;-45
2021/04/21 02:19:15;;;;;;;12.27;10.70;;;16.10;43.90;;;;;;5041005;28;20842;-48
2021/04/21 02:22:02;;;;;;;11.63;10.43;;;15.30;44.20;;;;;;5042074;28;20481;-45
2021/04/21 02:24:55;;;;;;;12.60;11.07;;;14.90;45.00;;;;;;5045007;28;20446;-45
2021/04/21 02:27:33;;;;;;;12.13;10.93;;;14.50;45.70;;;;;;5040276;28;20500;-44
2021/04/21 02:30:09;;;;;;;11.67;9.57;;;14.30;46.10;;;;;;5022298;28;20446;-48
2021/04/21 02:32:57;;;;;;;12.43;10.60;;;14.10;46.60;;;;;;5039995;28;20454;-46
2021/04/21 02:35:28;;;;;;;13.50;12.10;;;13.60;47.30;;;;;;5039907;28;20471;-44
2021/04/21 02:38:32;;;;;;;13.37;11.20;;;13.00;48.80;;;;;;5041709;28;20466;-44
2021/04/21 02:41:13;;;;;;;13.93;10.70;;;12.40;50.20;;;;;;5042802;28;21011;-45
2021/04/21 02:43:57;;;;;;;12.67;11.20;;;12.10;51.40;;;;;;5040843;28;20535;-45
2021/04/21 02:46:34;;;;;;;12.50;10.17;;;11.60;52.40;;;;;;5041072;28;20543;-43
2021/04/21 02:49:21;;;;;;;11.87;10.67;;;11.30;53.20;;;;;;5038829;28;20454;-45
2021/04/21 02:52:04;;;;;;;12.53;10.23;;;11.40;53.10;;;;;;5040342;28;20978;-48
2021/04/21 02:54:51;;;;;;;12.13;10.43;;;11.30;53.20;;;;;;5042502;28;20447;-45
2021/04/21 02:57:39;;;;;;;12.53;10.80;;;11.30;53.30;;;;;;5042933;28;20482;-44
2021/04/21 03:00:12;;;;;;;14.97;12.40;;;11.10;53.90;;;;;;5039803;28;20489;-47
2021/04/21 03:02:53;;;;;;;15.00;11.80;;;10.80;54.40;;;;;;5040825;28;20443;-44
2021/04/21 03:05:23;;;;;;;13.70;11.40;;;10.70;55.00;;;;;;5044895;28;20469;-45
2021/04/21 03:08:09;;;;;;;16.10;11.63;;;10.60;55.30;;;;;;5042600;28;20451;-44
2021/04/21 03:10:48;;;;;;;14.20;11.20;;;10.70;55.20;;;;;;5043655;28;20508;-44
2021/04/21 03:13:22;;;;;;;14.33;12.13;;;10.60;55.00;;;;;;5041910;28;20466;-47
2021/04/21 03:15:52;;;;;;;15.43;12.40;;;10.60;55.40;;;;;;5048520;28;20554;-45
2021/04/21 03:18:22;;;;;;;14.40;11.50;;;10.70;55.50;;;;;;5047692;28;20439;-45
2021/04/21 03:20:54;;;;;;;14.17;12.00;;;10.60;55.30;;;;;;5040698;28;20856;-45
2021/04/21 03:23:21;;;;;;;14.03;12.40;;;10.50;55.60;;;;;;5040001;28;20439;-48
2021/04/21 03:25:51;;;;;;;12.43;10.90;;;10.40;56.00;;;;;;5040888;28;20447;-44
2021/04/21 03:28:20;;;;;;;15.77;11.63;;;10.50;55.70;;;;;;5040334;28;20439;-46
2021/04/21 03:30:49;;;;;;;17.63;12.97;;;10.60;55.50;;;;;;5039755;28;20934;-45
2021/04/21 03:33:29;;;;;;;14.43;11.27;;;10.60;55.40;;;;;;5038285;28;21171;-45
2021/04/21 03:35:55;;;;;;;13.37;11.20;;;10.70;55.20;;;;;;5042159;28;20523;-48
2021/04/21 03:38:21;;;;;;;15.17;12.97;;;10.70;54.90;;;;;;5041340;28;20443;-44
2021/04/21 03:40:47;;;;;;;16.67;12.17;;;10.60;55.00;;;;;;5043536;28;21869;-46
2021/04/21 03:43:13;;;;;;;17.40;11.87;;;10.40;55.10;;;;;;5042536;28;20546;-45
2021/04/21 03:45:44;;;;;;;15.33;11.67;;;9.90;57.10;;;;;;5038923;28;20224;-48
2021/04/21 03:48:11;;;;;;;14.63;10.97;;;10.00;56.90;;;;;;5040979;28;20447;-44
2021/04/21 03:50:37;;;;;;;13.50;11.33;;;10.10;56.40;;;;;;5042975;28;20439;-44
2021/04/21 03:53:08;;;;;;;15.00;12.10;;;10.20;56.20;;;;;;5041085;28;20455;-46
2021/04/21 03:55:36;;;;;;;15.87;11.83;;;10.30;55.80;;;;;;5041126;28;20443;-44
2021/04/21 03:58:10;;;;;;;16.50;11.83;;;10.30;55.80;;;;;;5037249;28;20457;-44
2021/04/21 04:00:41;;;;;;;15.20;11.70;;;10.10;56.30;;;;;;5041100;28;20536;-44
2021/04/21 04:03:22;;;;;;;15.57;11.93;;;9.60;57.70;;;;;;5040842;28;20455;-44
2021/04/21 04:06:12;;;;;;;16.30;11.60;;;9.40;58.40;;;;;;5037123;28;20892;-44
2021/04/21 04:08:59;;;;;;;15.40;12.30;;;9.40;58.60;;;;;;5040468;28;20455;-44
2021/04/21 04:11:47;;;;;;;17.17;12.70;;;9.20;58.80;;;;;;5044792;28;20451;-44
2021/04/21 04:14:22;;;;;;;19.10;12.17;;;9.30;59.30;;;;;;5041170;28;20451;-44
2021/04/21 04:16:54;;;;;;;16.30;13.83;;;9.50;59.00;;;;;;5040509;28;20446;-44
2021/04/21 04:19:20;;;;;;;16.37;13.00;;;9.60;58.60;;;;;;5042950;28;20478;-44
2021/04/21 04:22:03;;;;;;;17.50;13.70;;;9.70;58.40;;;;;;5040038;28;20581;-44
2021/04/21 04:24:35;;;;;;;15.90;12.47;;;9.70;58.20;;;;;;5039229;28;20462;-43
2021/04/21 04:27:01;;;;;;;16.87;13.10;;;9.70;58.40;;;;;;5041951;28;20442;-45
2021/04/21 04:29:27;;;;;;;17.83;13.07;;;9.90;58.20;;;;;;5041494;28;20447;-44
2021/04/21 04:31:53;;;;;;;17.13;13.73;;;9.60;58.60;;;;;;5040848;28;20931;-46
2021/04/21 04:34:21;;;;;;;14.00;11.77;;;9.50;59.20;;;;;;5037646;28;20600;-46
2021/04/21 04:36:48;;;;;;;17.63;12.63;;;9.60;59.30;;;;;;5041716;28;20440;-44
2021/04/21 04:39:14;;;;;;;17.40;13.40;;;9.90;58.70;;;;;;5042617;28;21005;-43
2021/04/21 04:41:41;;;;;;;14.40;11.27;;;10.00;57.20;;;;;;5042999;28;20863;-45
2021/04/21 04:44:07;;;;;;;16.17;13.20;;;10.00;56.80;;;;;;5042226;28;20470;-46
2021/04/21 04:46:39;;;;;;;16.13;14.23;;;9.90;57.80;;;;;;5044222;28;20442;-46
2021/04/21 04:49:14;;;;;;;16.73;12.90;;;9.60;58.40;;;;;;5042902;28;20918;-43
2021/04/21 04:51:44;;;;;;;21.60;13.97;;;9.60;58.70;;;;;;5044767;28;20431;-43
2021/04/21 04:54:11;;;;;;;14.10;11.90;;;9.40;59.40;;;;;;5041136;28;20505;-43
2021/04/21 04:56:37;;;;;;;16.23;13.60;;;9.50;59.10;;;;;;5044238;28;20905;-44
2021/04/21 04:59:05;;;;;;;16.73;13.40;;;9.80;58.80;;;;;;5042683;28;20835;-43
2021/04/21 05:01:51;;;;;;;17.37;12.73;;;9.80;58.30;;;;;;5042072;28;20457;-45
2021/04/21 05:04:20;;;;;;;17.93;13.70;;;9.50;58.80;;;;;;5025691;28;20609;-43
2021/04/21 05:07:07;;;;;;;19.27;12.80;;;9.10;59.70;;;;;;5044705;28;20574;-45
2021/04/21 05:09:42;;;;;;;19.23;13.70;;;9.00;60.70;;;;;;5042477;28;20474;-44
2021/04/21 05:12:12;;;;;;;17.10;11.37;;;8.80;60.90;;;;;;5042510;28;20443;-43
2021/04/21 05:14:46;;;;;;;22.40;12.93;;;8.80;62.80;;;;;;5047176;28;20435;-43
2021/04/21 05:17:49;;;;;;;14.77;11.50;;;8.90;62.90;;;;;;5039842;28;20588;-42
2021/04/21 05:20:36;;;;;;;15.80;12.97;;;9.30;62.90;;;;;;5044327;28;20490;-43
2021/04/21 05:23:17;;;;;;;14.97;12.13;;;9.80;60.40;;;;;;5039811;28;20557;-44
2021/04/21 05:26:17;;;;;;;18.00;12.40;;;10.00;58.50;;;;;;5042739;28;20457;-42
2021/04/21 05:29:11;;;;;;;14.63;11.00;;;10.30;57.40;;;;;;5042672;28;20467;-42
2021/04/21 05:31:55;;;;;;;15.63;12.70;;;10.50;57.00;;;;;;5040562;28;20446;-42
2021/04/21 05:34:58;;;;;;;17.20;11.63;;;10.80;56.50;;;;;;5042875;28;20475;-42
2021/04/21 05:37:47;;;;;;;17.13;12.10;;;10.80;55.40;;;;;;5048809;28;20945;-42
2021/04/21 05:40:43;;;;;;;15.90;13.20;;;10.80;55.40;;;;;;5047763;28;20490;-43
2021/04/21 05:43:46;;;;;;;13.73;12.23;;;11.00;55.30;;;;;;5045595;28;20546;-43
2021/04/21 05:46:49;;;;;;;16.43;11.97;;;11.20;55.10;;;;;;5047298;28;20446;-42
2021/04/21 05:49:40;;;;;;;15.47;12.27;;;11.60;54.30;;;;;;5044961;28;20976;-43
2021/04/21 05:52:43;;;;;;;16.93;13.17;;;11.60;54.00;;;;;;5045729;28;20984;-45
2021/04/21 05:55:30;;;;;;;15.20;12.10;;;11.80;54.10;;;;;;5046489;28;20577;-42
2021/04/21 05:58:24;;;;;;;13.57;11.40;;;12.00;53.30;;;;;;5045976;28;20447;-44
2021/04/21 06:01:11;;;;;;;14.87;10.60;;;11.90;53.70;;;;;;5047024;28;20570;-43
2021/04/21 06:03:38;;;;;;;15.67;12.87;;;11.40;54.40;;;;;;5048259;28;20431;-44
2021/04/21 06:06:04;;;;;;;18.30;12.60;;;11.70;54.60;;;;;;5049369;28;20476;-42
2021/04/21 06:08:32;;;;;;;16.97;13.30;;;11.80;54.10;;;;;;5046895;28;20558;-42
2021/04/21 06:10:58;;;;;;;21.67;11.57;;;11.90;53.90;;;;;;5046513;28;20439;-45
2021/04/21 06:13:34;;;;;;;17.70;13.70;;;11.80;54.10;;;;;;5046923;28;20431;-44
2021/04/21 06:16:00;;;;;;;17.37;12.63;;;11.60;54.30;;;;;;5044635;28;20438;-43
2021/04/21 06:18:26;;;;;;;18.63;12.27;;;11.60;55.50;;;;;;5046172;28;20431;-45
2021/04/21 06:20:53;;;;;;;18.87;14.43;;;11.70;55.00;;;;;;5046824;28;20536;-44
2021/04/21 06:23:21;;;;;;;21.10;14.23;;;11.90;54.60;;;;;;5046368;28;20435;-44
2021/04/21 06:25:58;;;;;;;16.77;14.00;;;11.90;55.00;;;;;;5047398;28;20423;-44
2021/04/21 06:28:24;;;;;;;17.37;15.20;;;12.30;54.80;;;;;;5046652;28;20442;-44
2021/04/21 06:31:12;;;;;;;19.77;13.90;;;12.60;54.10;;;;;;5046288;28;20427;-47
2021/04/21 06:33:40;;;;;;;17.50;13.50;;;12.60;53.80;;;;;;5046000;28;20509;-45
2021/04/21 06:36:08;;;;;;;17.03;14.60;;;12.90;53.70;;;;;;5045722;28;20470;-44
2021/04/21 06:38:35;;;;;;;19.90;14.83;;;13.20;53.30;;;;;;5047961;28;20449;-45
2021/04/21 06:41:01;;;;;;;19.33;14.60;;;13.40;52.90;;;;;;5046097;28;20838;-45
2021/04/21 06:43:30;;;;;;;17.20;14.47;;;13.70;52.30;;;;;;5043861;28;20446;-44
2021/04/21 06:45:56;;;;;;;20.20;16.33;;;13.90;51.60;;;;;;5045264;28;20443;-45
2021/04/21 06:48:36;;;;;;;21.03;16.30;;;13.80;51.70;;;;;;5048444;28;20435;-46
2021/04/21 06:51:12;;;;;;;21.80;15.53;;;13.90;52.30;;;;;;5048844;28;20193;-44
2021/04/21 06:53:39;;;;;;;18.20;15.00;;;14.10;51.30;;;;;;5046206;28;20965;-44
2021/04/21 06:56:06;;;;;;;22.60;16.33;;;14.20;50.90;;;;;;5045377;28;20443;-46
2021/04/21 06:58:33;;;;;;;18.27;15.33;;;14.00;51.90;;;;;;5045867;28;20452;-45
2021/04/21 07:01:13;;;;;;;19.23;15.77;;;14.00;51.80;;;;;;5046487;28;20482;-44
2021/04/21 07:03:39;;;;;;;21.00;16.20;;;14.30;51.40;;;;;;5043051;28;20502;-47
2021/04/21 07:06:06;;;;;;;18.17;16.10;;;14.80;51.00;;;;;;5043130;28;20845;-45
2021/04/21 07:08:33;;;;;;;20.90;16.97;;;15.10;50.20;;;;;;5041500;28;20938;-45
2021/04/21 07:11:01;;;;;;;22.70;17.17;;;15.40;49.70;;;;;;5039700;28;20468;-44
2021/04/21 07:13:31;;;;;;;18.20;15.90;;;15.70;49.10;;;;;;5041948;28;20462;-45
2021/04/21 07:16:02;;;;;;;20.43;17.00;;;15.80;48.80;;;;;;5041569;28;20443;-42
2021/04/21 07:18:39;;;;;;;22.77;16.70;;;16.00;49.20;;;;;;5039997;28;20493;-45
2021/04/21 07:21:06;;;;;;;19.07;16.73;;;16.10;48.00;;;;;;5041010;28;20488;-43
2021/04/21 07:23:34;;;;;;;20.40;16.43;;;16.20;48.00;;;;;;5039720;28;20436;-43
2021/04/21 07:26:00;;;;;;;18.83;14.97;;;16.40;47.80;;;;;;5045584;28;20443;-43
2021/04/21 07:28:27;;;;;;;23.50;17.10;;;16.60;47.40;;;;;;5048890;28;20439;-43
2021/04/21 07:30:54;;;;;;;22.83;16.90;;;16.90;47.10;;;;;;5048088;28;20453;-44
2021/04/21 07:33:37;;;;;;;17.53;15.70;;;17.00;46.80;;;;;;5046656;28;21184;-44
2021/04/21 07:36:15;;;;;;;20.00;17.10;;;17.40;47.00;;;;;;5045440;28;20490;-46
2021/04/21 07:38:47;;;;;;;20.40;16.53;;;17.70;46.90;;;;;;5049960;28;20443;-45
2021/04/21 07:41:15;;;;;;;20.23;17.60;;;17.90;45.70;;;;;;5050962;28;20558;-44
2021/04/21 07:43:46;;;;;;;22.37;18.13;;;18.00;45.40;;;;;;5051078;28;20438;-44
2021/04/21 07:46:21;;;;;;;18.37;16.37;;;18.20;45.00;;;;;;5050834;28;20435;-44
2021/04/21 07:48:47;;;;;;;24.27;17.40;;;18.40;45.20;;;;;;5051592;28;20415;-44
2021/04/21 07:51:16;;;;;;;17.93;15.83;;;18.60;45.20;;;;;;5050935;28;20438;-44
2021/04/21 07:54:03;;;;;;;17.50;15.30;;;18.90;45.40;;;;;;5050879;28;20435;-45
2021/04/21 07:56:49;;;;;;;19.73;16.37;;;19.00;44.00;;;;;;5050785;28;20449;-44
2021/04/21 07:59:25;;;;;;;23.00;19.30;;;19.20;43.00;;;;;;5051160;28;20453;-45
2021/04/21 08:01:52;;;;;;;18.20;16.30;;;19.20;41.60;;;;;;5050894;28;20443;-47
2021/04/21 08:04:26;;;;;;;19.30;16.60;;;19.30;42.80;;;;;;5049168;28;20427;-45
2021/04/21 08:06:57;;;;;;;19.07;16.47;;;19.40;42.00;;;;;;5051092;28;20828;-46
2021/04/21 08:09:25;;;;;;;17.90;16.00;;;19.60;41.60;;;;;;5051283;28;20825;-45
2021/04/21 08:12:10;;;;;;;19.37;16.83;;;19.70;41.70;;;;;;5054507;28;20477;-45
2021/04/21 08:14:40;;;;;;;21.13;17.23;;;19.90;41.50;;;;;;5054707;28;20501;-47
2021/04/21 08:17:05;;;;;;;21.20;17.40;;;19.90;41.20;;;;;;5054616;28;20798;-44
2021/04/21 08:19:36;;;;;;;19.00;16.90;;;19.80;41.00;;;;;;5055104;28;20462;-46
2021/04/21 08:22:02;;;;;;;20.53;17.67;;;20.00;40.90;;;;;;5054350;28;20220;-45
2021/04/21 08:24:36;;;;;;;19.80;17.60;;;20.10;40.30;;;;;;5054885;28;20446;-44
2021/04/21 08:27:01;;;;;;;18.90;16.90;;;20.20;40.60;;;;;;5054403;28;20772;-44
2021/04/21 08:29:30;;;;;;;20.17;17.53;;;20.30;40.40;;;;;;5054966;28;20430;-46
2021/04/21 08:31:55;;;;;;;21.63;16.93;;;20.40;39.50;;;;;;5052461;28;21659;-47
2021/04/21 08:34:21;;;;;;;21.87;16.93;;;20.60;39.30;;;;;;5054508;28;20557;-47
2021/04/21 08:36:47;;;;;;;19.70;16.97;;;20.60;39.60;;;;;;5054085;28;20198;-47
2021/04/21 08:39:14;;;;;;;21.33;16.73;;;20.90;39.50;;;;;;5054747;28;20238;-45
2021/04/21 08:41:43;;;;;;;19.47;16.67;;;21.00;39.30;;;;;;5054243;28;20602;-46
2021/04/21 08:44:10;;;;;;;19.23;17.30;;;21.10;39.30;;;;;;5054240;28;20480;-48
2021/04/21 08:46:36;;;;;;;20.00;16.83;;;21.30;39.20;;;;;;5053981;28;20477;-47
2021/04/21 08:49:04;;;;;;;18.60;16.60;;;21.40;39.20;;;;;;5053711;28;20852;-45
2021/04/21 08:51:30;;;;;;;17.57;15.73;;;21.60;39.20;;;;;;5036778;28;20524;-46
2021/04/21 08:54:06;;;;;;;19.40;15.90;;;21.80;38.30;;;;;;5033917;28;20435;-46
2021/04/21 08:56:36;;;;;;;18.60;16.10;;;22.00;38.40;;;;;;5052062;28;20433;-45
2021/04/21 08:59:04;;;;;;;17.70;15.20;;;22.10;37.90;;;;;;5040593;28;20516;-45
2021/04/21 09:01:30;;;;;;;21.60;15.57;;;22.20;38.40;;;;;;5033587;28;20475;-46
2021/04/21 09:03:56;;;;;;;19.00;15.70;;;22.40;38.70;;;;;;5034151;28;20444;-45
2021/04/21 09:06:22;;;;;;;18.27;15.50;;;22.60;37.60;;;;;;5034009;28;20516;-45
2021/04/21 09:08:50;;;;;;;15.93;14.30;;;22.70;36.90;;;;;;5034453;28;20522;-45
2021/04/21 09:11:17;;;;;;;16.00;13.47;;;22.80;36.30;;;;;;5033519;28;20289;-45
2021/04/21 09:13:43;;;;;;;16.50;13.70;;;22.80;32.70;;;;;;5033854;28;20455;-47
2021/04/21 09:16:08;;;;;;;15.70;12.50;;;22.90;34.10;;;;;;5033505;28;20443;-45
2021/04/21 09:18:35;;;;;;;18.97;13.83;;;23.00;33.20;;;;;;5034024;28;20198;-46
2021/04/21 09:21:04;;;;;;;13.90;12.27;;;23.20;33.20;;;;;;5033350;28;20221;-47
2021/04/21 09:23:38;;;;;;;13.40;11.97;;;23.10;33.00;;;;;;5032756;28;20468;-48
2021/04/21 09:26:22;;;;;;;15.67;14.03;;;23.10;33.60;;;;;;5039438;28;20484;-47
2021/04/21 09:28:52;;;;;;;17.47;13.40;;;23.20;34.50;;;;;;5053560;28;20447;-48
2021/04/21 09:31:23;;;;;;;16.20;13.77;;;23.30;34.90;;;;;;5053604;28;20415;-47
2021/04/21 09:34:08;;;;;;;15.93;12.60;;;23.50;35.50;;;;;;5053023;28;20566;-47
2021/04/21 09:36:35;;;;;;;15.43;13.83;;;23.60;34.30;;;;;;5052771;28;20442;-46
2021/04/21 09:39:18;;;;;;;20.77;14.07;;;;;;;;;;5052644;28;20808;-46
2021/04/21 09:41:46;;;;;;;15.33;13.77;;;24.10;34.20;;;;;;5043890;28;20444;-46
2021/04/21 09:44:17;;;;;;;14.43;12.70;;;24.20;34.50;;;;;;5051309;28;20427;-47
2021/04/21 09:46:45;;;;;;;15.97;13.30;;;24.50;34.40;;;;;;5050465;28;20526;-45
2021/04/21 09:49:30;;;;;;;14.43;12.90;;;24.70;33.50;;;;;;5051655;28;20435;-47
2021/04/21 09:51:58;;;;;;;15.70;14.10;;;24.90;32.20;;;;;;5044179;28;20451;-46
2021/04/21 09:54:28;;;;;;;15.43;13.93;;;25.00;32.10;;;;;;5040185;28;20435;-49
2021/04/21 09:57:15;;;;;;;14.83;13.33;;;24.90;31.50;;;;;;5047503;28;20808;-46
2021/04/21 09:59:42;;;;;;;15.87;13.63;;;25.00;31.00;;;;;;5045272;28;20472;-46
2021/04/21 10:02:34;;;;;;;12.40;11.20;;;24.70;30.60;;;;;;5051778;28;20427;-45
2021/04/21 10:05:28;;;;;;;12.90;11.03;;;24.80;31.20;;;;;;5048831;28;20501;-44
2021/04/21 10:08:33;;;;;;;11.77;10.50;;;25.00;31.60;;;;;;5043357;28;20443;-45
2021/04/21 10:11:04;;;;;;;11.13;10.00;;;25.40;29.20;;;;;;4943355;28;20466;-44
2021/04/21 10:13:46;;;;;;;12.03;10.80;;;25.60;30.00;;;;;;4944122;28;20798;-46
2021/04/21 10:16:13;;;;;;;11.73;10.60;;;25.90;29.40;;;;;;5006229;28;21096;-47
2021/04/21 10:18:41;;;;;;;13.27;11.90;;;26.00;29.10;;;;;;5044083;28;20432;-46
2021/04/21 10:21:08;;;;;;;12.73;10.43;;;26.10;28.50;;;;;;5042555;28;21005;-47
2021/04/21 10:23:34;;;;;;;12.83;11.60;;;26.20;28.10;;;;;;5042826;28;20435;-44
2021/04/21 10:26:07;;;;;;;12.97;11.60;;;26.20;27.80;;;;;;5050595;28;20900;-45
2021/04/21 10:28:35;;;;;;;11.10;9.97;;;26.40;28.30;;;;;;5051747;28;20442;-47
2021/04/21 10:31:05;;;;;;;12.07;10.73;;;26.30;27.30;;;;;;5048081;28;20796;-47
2021/04/21 10:33:31;;;;;;;11.57;9.17;;;26.50;27.80;;;;;;5048193;28;20446;-45
2021/04/21 10:35:57;;;;;;;10.67;9.63;;;26.30;28.00;;;;;;5045531;28;20463;-46
2021/04/21 10:38:25;;;;;;;11.10;10.00;;;26.50;28.80;;;;;;5044171;28;20271;-50
2021/04/21 10:41:38;;;;;;;10.20;9.30;;;26.80;28.90;;;;;;5044999;28;20485;-45
2021/04/21 10:44:09;;;;;;;10.33;9.27;;;27.00;28.80;;;;;;5048793;28;20435;-46
2021/04/21 10:47:01;;;;;;;11.47;10.30;;;27.30;28.70;;;;;;5032799;28;20431;-46
2021/04/21 10:49:33;;;;;;;12.00;10.80;;;27.40;27.60;;;;;;5048127;28;20441;-49
2021/04/21 10:52:28;;;;;;;10.47;9.43;;;27.50;26.70;;;;;;5043974;28;20929;-47
2021/04/21 10:55:03;;;;;;;9.83;8.63;;;27.60;26.40;;;;;;5030208;28;20436;-48
2021/04/21 10:57:33;;;;;;;8.53;7.63;;;27.60;26.40;;;;;;5045863;28;20438;-45
2021/04/21 11:00:08;;;;;;;8.43;7.50;;;27.70;26.50;;;;;;5047705;28;20495;-48
2021/04/21 11:02:40;;;;;;;8.43;7.73;;;27.80;26.70;;;;;;5048671;28;20817;-46
2021/04/21 11:05:10;;;;;;;10.40;9.30;;;27.70;26.20;;;;;;5050068;28;20438;-48
2021/04/21 11:07:36;;;;;;;9.40;7.43;;;28.00;26.30;;;;;;5048319;28;20431;-48
2021/04/21 11:10:07;;;;;;;10.17;9.17;;;28.10;26.50;;;;;;5049755;28;20521;-44
2021/04/21 11:12:52;;;;;;;9.33;8.43;;;28.20;25.30;;;;;;5049863;28;20435;-47
2021/04/21 11:15:38;;;;;;;9.13;8.27;;;28.20;25.90;;;;;;5048006;28;20436;-47
2021/04/21 11:18:13;;;;;;;10.10;8.47;;;28.20;26.40;;;;;;5046097;28;20443;-47
2021/04/21 11:20:47;;;;;;;9.70;8.67;;;28.30;24.50;;;;;;5050006;28;20508;-44
2021/04/21 11:23:52;;;;;;;8.00;7.30;;;28.30;24.40;;;;;;5042457;28;20512;-44
2021/04/21 11:26:24;;;;;;;9.40;7.00;;;28.40;24.80;;;;;;5046546;28;21014;-47
2021/04/21 11:29:10;;;;;;;10.17;9.20;;;28.40;24.70;;;;;;5041101;28;20439;-44
2021/04/21 11:31:42;;;;;;;9.63;8.77;;;28.30;24.40;;;;;;5048489;28;20474;-48
2021/04/21 11:34:13;;;;;;;8.70;7.90;;;28.40;24.20;;;;;;5048611;28;20851;-47
2021/04/21 11:36:45;;;;;;;8.93;7.60;;;28.40;23.90;;;;;;5044168;28;20483;-46
2021/04/21 11:39:11;;;;;;;8.03;7.30;;;28.40;24.60;;;;;;5044101;28;20432;-45
2021/04/21 11:41:46;;;;;;;8.37;7.60;;;28.50;25.40;;;;;;5040290;28;20428;-44
2021/04/21 11:44:56;;;;;;;8.83;6.40;;;28.70;25.40;;;;;;5046005;28;20489;-45
2021/04/21 11:47:30;;;;;;;8.77;7.97;;;29.10;25.90;;;;;;5034415;28;20443;-44
2021/04/21 11:50:07;;;;;;;7.53;6.87;;;29.40;25.60;;;;;;5049765;28;20794;-44
2021/04/21 11:52:42;;;;;;;9.30;8.40;;;29.50;24.80;;;;;;5042301;28;20438;-45
2021/04/21 11:55:08;;;;;;;7.37;6.67;;;29.40;24.80;;;;;;5042963;28;20931;-45
2021/04/21 11:57:37;;;;;;;9.03;7.40;;;29.40;24.40;;;;;;5046646;28;20427;-47
2021/04/21 12:00:08;;;;;;;8.80;7.90;;;29.60;25.50;;;;;;5049401;28;20482;-46
2021/04/21 12:02:34;;;;;;;10.23;9.20;;;29.60;25.20;;;;;;5048195;28;20947;-46
2021/04/21 12:05:01;;;;;;;8.83;7.20;;;29.70;24.30;;;;;;5049688;28;20438;-49
2021/04/21 12:07:27;;;;;;;8.97;8.20;;;29.30;23.40;;;;;;5044299;28;20497;-50
2021/04/21 12:09:52;;;;;;;8.03;7.27;;;29.30;23.70;;;;;;5048032;28;20427;-46
2021/04/21 12:12:25;;;;;;;8.03;7.30;;;29.40;23.20;;;;;;5043664;28;20197;-45
2021/04/21 12:15:05;;;;;;;8.53;7.77;;;29.40;25.00;;;;;;5047638;28;20215;-47
2021/04/21 12:17:31;;;;;;;8.40;7.70;;;29.30;24.80;;;;;;5043013;28;20521;-49
2021/04/21 12:19:59;;;;;;;8.30;7.60;;;29.20;24.30;;;;;;5049090;28;20506;-46
2021/04/21 12:22:41;;;;;;;7.60;6.90;;;29.30;23.90;;;;;;5042976;28;20471;-49
2021/04/21 12:25:09;;;;;;;7.50;6.50;;;29.20;24.00;;;;;;5043722;28;20542;-47
2021/04/21 12:27:35;;;;;;;8.70;7.40;;;29.10;24.60;;;;;;5040022;28;20511;-44
2021/04/21 12:30:21;;;;;;;9.83;7.00;;;29.10;23.80;;;;;;5043968;28;20438;-45
2021/04/21 12:32:47;;;;;;;8.07;7.43;;;29.20;23.70;;;;;;5046480;28;20518;-43
2021/04/21 12:35:15;;;;;;;7.93;7.20;;;29.00;23.80;;;;;;5045107;28;20463;-43
2021/04/21 12:37:41;;;;;;;7.67;7.00;;;28.90;23.20;;;;;;5046742;28;21018;-42
2021/04/21 12:40:21;;;;;;;8.00;7.30;;;28.90;23.10;;;;;;5026060;28;20494;-49
2021/04/21 12:42:51;;;;;;;7.63;6.17;;;29.00;23.20;;;;;;5045250;28;20231;-49
2021/04/21 12:45:24;;;;;;;9.13;8.33;;;29.10;22.80;;;;;;5047074;28;20979;-46
2021/04/21 12:47:50;;;;;;;8.20;7.40;;;28.90;23.10;;;;;;5044816;28;20427;-45
2021/04/21 12:50:15;;;;;;;8.47;7.63;;;29.00;23.40;;;;;;5048940;28;20427;-47
2021/04/21 12:52:41;;;;;;;7.90;7.20;;;29.00;23.50;;;;;;5041816;28;20332;-44
2021/04/21 12:55:07;;;;;;;7.43;6.63;;;29.00;23.20;;;;;;5049551;28;20604;-46
2021/04/21 12:57:47;;;;;;;7.60;6.90;;;28.90;23.40;;;;;;5049649;28;20188;-43
2021/04/21 13:00:13;;;;;;;7.83;7.03;;;28.90;23.40;;;;;;5049358;28;20490;-44
2021/04/21 13:02:45;;;;;;;7.77;6.40;;;28.80;23.20;;;;;;5051046;28;20423;-44
2021/04/21 13:05:15;;;;;;;7.10;6.50;;;28.80;23.10;;;;;;5050825;28;20996;-44
2021/04/21 13:07:41;;;;;;;6.70;6.10;;;28.60;22.30;;;;;;5052441;28;20914;-44
2021/04/21 13:10:12;;;;;;;6.40;5.90;;;28.60;22.00;;;;;;5052466;28;20435;-44